Hauptseite
METAR-TAF:

METAR-TAF

Flughäfen :

Whale Cove, Nunavut, Kanada

Breite: 62-14N, Länge: 092-36W, Höhe: 20 m

Beobachtung

Neuester Wetterbericht von vor 18 Minuten, um 18:00 UTC
Wind 9 kt aus Nord/Nordost
Temperatur -25°C
Luftfeuchtigkeit 76%
Luftdruck 1022 hPa
Sichtweite: 24.1 km
Leicht bewölkt in der Höhe von 1000 ft
Leicht bewölkt in der Höhe von 7000 ft

METAR: CYXN 251800Z 02009KT 15SM FEW010 FEW070 M25/M28 A3017 RMK SC2AC1 AC TR SLP220

Zeit: 12:18 (18:18 UTC)


TAF: fehlend

Wetterbeobachtungen und Prognosen von mehr als 4000 Flughäfen (METAR und TAF Bericht).

Die verfügbaren Stationen werden durch gelbe und rote Markierungen auf der Karte dargestellt.

Führen Sie die Maus auf sie, um den Namen der Station zu sehen.

Darauf klicken, um die Beobachtung von Wetterbeobachtungen und Prognosen zu sehen.

Um die Karte zu ändern : klicken Sie auf den grünen Tasten mit einem schwarzen Kreuz Zum Vergrößern, auf den grünen Button mit einem Gedankenstrich zu verkleinern, oder auf die grünen Pfeile für benachbarte Karten.


METAR-TAF: